Time;durP1;ratioP1;P1;durP2;ratioP2;P2;SDS_P1;SDS_P2;PMS_P1;PMS_P2;Temp;Humidity;BMP_temperature;BMP_pressure;BME280_temperature;BME280_humidity;BME280_pressure;Samples;Min_cycle;Max_cycle;Signal;HPM_P1;HPM_P2
2023/12/13 00:02:22;;;;;;;8.10;7.80;;;12.00;38.90;;;;;;4911323;29;20185;-78
2023/12/13 00:04:47;;;;;;;8.27;7.87;;;12.00;38.50;;;;;;4912132;29;20296;-78
2023/12/13 00:07:13;;;;;;;7.90;7.70;;;11.80;37.30;;;;;;4911265;29;20209;-78
2023/12/13 00:09:38;;;;;;;8.50;8.10;;;11.70;39.00;;;;;;4911804;29;20195;-79
2023/12/13 00:12:04;;;;;;;8.10;7.80;;;11.90;39.30;;;;;;4903944;29;20193;-78
2023/12/13 00:14:30;;;;;;;7.90;7.60;;;12.00;39.20;;;;;;4911466;29;20193;-78
2023/12/13 00:16:56;;;;;;;8.30;7.90;;;12.00;38.70;;;;;;4911228;29;20524;-76
2023/12/13 00:19:21;;;;;;;8.23;7.93;;;11.90;36.80;;;;;;4924435;29;20194;-77
2023/12/13 00:21:47;;;;;;;7.70;7.50;;;11.80;37.50;;;;;;4922856;29;20185;-78
2023/12/13 00:24:13;;;;;;;7.70;7.50;;;11.70;38.50;;;;;;4899487;29;20481;-78
2023/12/13 00:26:38;;;;;;;8.27;7.97;;;11.90;38.80;;;;;;4907238;29;20237;-78
2023/12/13 00:29:04;;;;;;;7.53;7.33;;;12.00;38.50;;;;;;4908429;29;20272;-76
2023/12/13 00:31:30;;;;;;;7.70;7.50;;;12.00;38.10;;;;;;4909187;29;20215;-76
2023/12/13 00:33:56;;;;;;;7.90;7.70;;;12.10;37.50;;;;;;4908217;29;20456;-77
2023/12/13 00:36:21;;;;;;;8.10;7.90;;;12.20;36.90;;;;;;4890426;29;20235;-77
2023/12/13 00:38:47;;;;;;;8.00;7.70;;;12.20;36.70;;;;;;4908895;29;20192;-77
2023/12/13 00:41:13;;;;;;;8.17;7.77;;;12.20;36.20;;;;;;4906945;29;20195;-78
2023/12/13 00:43:38;;;;;;;8.17;7.87;;;12.20;36.00;;;;;;4908942;29;20920;-78
2023/12/13 00:46:05;;;;;;;7.20;7.00;;;12.20;36.00;;;;;;4907230;29;20220;-77
2023/12/13 00:48:32;;;;;;;7.73;7.40;;;12.20;35.50;;;;;;4907611;29;20185;-78
2023/12/13 00:50:58;;;;;;;7.67;7.40;;;12.30;35.40;;;;;;4908840;29;20497;-77
2023/12/13 00:53:23;;;;;;;7.77;7.50;;;12.20;34.70;;;;;;4909272;29;20428;-77
2023/12/13 00:55:53;;;;;;;7.47;7.27;;;12.20;35.10;;;;;;4908412;29;20500;-77
2023/12/13 00:58:19;;;;;;;8.47;8.10;;;12.10;35.40;;;;;;4890747;29;20194;-77
2023/12/13 01:00:44;;;;;;;7.73;7.50;;;12.10;35.20;;;;;;4897230;29;20473;-76
2023/12/13 01:03:10;;;;;;;7.37;7.07;;;12.10;34.90;;;;;;4907586;29;20637;-77
2023/12/13 01:05:35;;;;;;;7.20;7.00;;;11.80;33.10;;;;;;4909234;29;20216;-77
2023/12/13 01:08:00;;;;;;;8.00;7.60;;;11.30;35.00;;;;;;4908158;29;20184;-75
2023/12/13 01:10:26;;;;;;;7.93;7.63;;;11.00;36.10;;;;;;4885709;29;20193;-77
2023/12/13 01:12:52;;;;;;;7.47;7.27;;;10.90;36.90;;;;;;4908570;29;20205;-77
2023/12/13 01:15:17;;;;;;;7.83;7.33;;;10.80;37.80;;;;;;4905801;29;20248;-75
2023/12/13 01:17:43;;;;;;;7.47;7.07;;;10.70;37.60;;;;;;4892372;29;20197;-77
2023/12/13 01:20:11;;;;;;;7.83;7.50;;;10.60;38.30;;;;;;4908135;29;20196;-78
2023/12/13 01:22:37;;;;;;;7.57;7.27;;;10.50;37.90;;;;;;4904960;29;20284;-77
2023/12/13 01:25:03;;;;;;;7.17;6.87;;;10.50;38.70;;;;;;4903492;29;20488;-77
2023/12/13 01:27:28;;;;;;;7.57;7.20;;;10.60;38.40;;;;;;4916717;29;20241;-78
2023/12/13 01:29:54;;;;;;;6.80;6.50;;;10.50;38.40;;;;;;4919356;29;20193;-78
2023/12/13 01:32:19;;;;;;;7.10;6.77;;;10.30;38.80;;;;;;4919288;29;20177;-77
2023/12/13 01:34:45;;;;;;;6.93;6.73;;;10.30;39.10;;;;;;4929279;28;20216;-76
2023/12/13 01:37:11;;;;;;;7.63;7.20;;;10.20;39.10;;;;;;4909287;29;20220;-77
2023/12/13 01:39:37;;;;;;;7.50;7.20;;;10.20;39.10;;;;;;4899899;29;20229;-77
2023/12/13 01:42:03;;;;;;;6.70;6.50;;;10.20;40.00;;;;;;4910415;29;20437;-78
2023/12/13 01:44:28;;;;;;;7.20;6.90;;;10.20;39.40;;;;;;4910635;29;20219;-78
2023/12/13 01:46:54;;;;;;;7.00;6.60;;;10.30;39.00;;;;;;4908779;29;20571;-78
2023/12/13 01:49:20;;;;;;;6.73;6.53;;;10.30;39.00;;;;;;4911532;29;20707;-77
2023/12/13 01:51:46;;;;;;;7.30;7.10;;;10.20;39.30;;;;;;4912176;29;20180;-78
2023/12/13 01:54:15;;;;;;;6.83;6.63;;;10.10;39.40;;;;;;4906293;29;20446;-77
2023/12/13 01:56:43;;;;;;;6.90;6.70;;;9.80;41.30;;;;;;4914213;29;20429;-78
2023/12/13 01:59:09;;;;;;;6.40;6.10;;;9.80;42.40;;;;;;4912155;29;20433;-77
2023/12/13 02:01:36;;;;;;;6.40;6.10;;;9.70;42.30;;;;;;4909213;29;20481;-77
2023/12/13 02:04:05;;;;;;;6.27;6.07;;;9.60;42.20;;;;;;4906712;29;20440;-77
2023/12/13 02:06:30;;;;;;;6.57;6.37;;;9.50;43.10;;;;;;4912673;29;20487;-77
2023/12/13 02:08:56;;;;;;;6.20;6.00;;;9.40;43.20;;;;;;4909194;29;20925;-77
2023/12/13 02:11:22;;;;;;;6.10;5.90;;;9.30;43.20;;;;;;4895920;29;20248;-77
2023/12/13 02:13:47;;;;;;;6.93;6.43;;;9.20;43.60;;;;;;4919765;29;20269;-77
2023/12/13 02:16:13;;;;;;;6.30;6.10;;;9.20;44.70;;;;;;4910498;29;20220;-77
2023/12/13 02:18:38;;;;;;;6.73;6.23;;;9.20;44.80;;;;;;4909043;29;20488;-77
2023/12/13 02:21:05;;;;;;;5.70;5.50;;;9.20;44.70;;;;;;4910715;29;20209;-77
2023/12/13 02:23:31;;;;;;;5.83;5.63;;;9.10;44.80;;;;;;4915317;29;20197;-77
2023/12/13 02:26:05;;;;;;;6.03;5.83;;;9.20;44.40;;;;;;4908461;29;20479;-77
2023/12/13 02:28:31;;;;;;;6.13;5.87;;;9.20;44.50;;;;;;4911336;29;20198;-78
2023/12/13 02:30:58;;;;;;;7.03;6.57;;;9.20;44.90;;;;;;4908113;29;20433;-77
2023/12/13 02:33:24;;;;;;;5.90;5.70;;;9.20;44.10;;;;;;4908649;29;20193;-78
2023/12/13 02:35:55;;;;;;;6.67;6.43;;;9.30;43.60;;;;;;4909318;29;20456;-77
2023/12/13 02:38:20;;;;;;;6.77;6.47;;;9.30;43.10;;;;;;4907959;29;20447;-76
2023/12/13 02:40:46;;;;;;;6.73;6.43;;;9.30;43.10;;;;;;4908950;29;20496;-76
2023/12/13 02:43:12;;;;;;;6.63;6.33;;;9.30;42.90;;;;;;4911137;29;20320;-78
2023/12/13 02:45:37;;;;;;;7.00;6.50;;;9.30;43.20;;;;;;4912997;29;20838;-78
2023/12/13 02:48:03;;;;;;;7.13;6.87;;;9.30;42.70;;;;;;4909177;29;20193;-77
2023/12/13 02:50:29;;;;;;;7.40;7.00;;;9.40;42.80;;;;;;4914264;29;20201;-77
2023/12/13 02:52:54;;;;;;;7.40;7.10;;;9.40;42.40;;;;;;4908806;29;20241;-76
2023/12/13 02:55:20;;;;;;;6.90;6.70;;;9.40;42.10;;;;;;4914980;29;20284;-76
2023/12/13 02:57:45;;;;;;;7.30;6.70;;;9.50;42.30;;;;;;4906955;29;20265;-79
2023/12/13 03:00:11;;;;;;;7.00;6.70;;;9.40;42.00;;;;;;4915182;29;20773;-77
2023/12/13 03:02:39;;;;;;;7.30;7.00;;;9.50;42.50;;;;;;4908069;29;20193;-77
2023/12/13 03:05:05;;;;;;;6.97;6.67;;;9.60;42.30;;;;;;4914786;29;20453;-78
2023/12/13 03:07:31;;;;;;;7.10;6.87;;;9.50;41.60;;;;;;4913953;29;20627;-78
2023/12/13 03:09:56;;;;;;;7.03;6.73;;;9.60;42.00;;;;;;4912486;29;20452;-78
2023/12/13 03:12:22;;;;;;;6.80;6.60;;;9.70;42.00;;;;;;4908184;29;20196;-77
2023/12/13 03:14:47;;;;;;;7.60;7.20;;;9.70;41.40;;;;;;4913489;29;20213;-77
2023/12/13 03:17:13;;;;;;;7.20;6.80;;;9.80;41.70;;;;;;4908010;29;20713;-78
2023/12/13 03:19:38;;;;;;;7.37;6.97;;;9.80;40.50;;;;;;4908101;29;20268;-75
2023/12/13 03:22:04;;;;;;;6.33;6.10;;;9.70;41.00;;;;;;4908370;29;20748;-77
2023/12/13 03:24:30;;;;;;;7.00;6.70;;;9.80;41.90;;;;;;4898018;29;20298;-77
2023/12/13 03:26:55;;;;;;;6.60;6.40;;;10.00;41.10;;;;;;4907741;29;20209;-76
2023/12/13 03:29:20;;;;;;;6.97;6.70;;;10.20;39.60;;;;;;4907705;29;20669;-78
2023/12/13 03:31:46;;;;;;;7.10;6.70;;;10.40;38.80;;;;;;4893279;29;20188;-77
2023/12/13 03:34:14;;;;;;;6.97;6.67;;;10.60;38.40;;;;;;4907550;29;20209;-77
2023/12/13 03:36:39;;;;;;;7.60;7.20;;;10.60;38.00;;;;;;4907444;29;20295;-77
2023/12/13 03:39:05;;;;;;;7.30;7.00;;;10.50;38.60;;;;;;4909037;29;20941;-77
2023/12/13 03:41:30;;;;;;;7.20;7.00;;;10.50;38.70;;;;;;4910477;29;20264;-77
2023/12/13 03:43:56;;;;;;;7.67;7.40;;;10.60;39.10;;;;;;4910853;29;20200;-77
2023/12/13 03:46:23;;;;;;;7.47;7.27;;;10.70;38.80;;;;;;4907572;29;20269;-77
2023/12/13 03:48:49;;;;;;;7.90;7.60;;;10.90;37.80;;;;;;4906999;29;20237;-76
2023/12/13 03:51:14;;;;;;;8.13;7.83;;;11.00;37.60;;;;;;4901680;29;20430;-77
2023/12/13 03:53:42;;;;;;;8.70;8.30;;;11.10;36.90;;;;;;4909846;29;20203;-77
2023/12/13 03:56:09;;;;;;;8.60;8.30;;;11.00;36.40;;;;;;4903787;29;20553;-78
2023/12/13 03:58:34;;;;;;;8.93;8.27;;;11.10;37.10;;;;;;4910548;29;20547;-76
2023/12/13 04:01:00;;;;;;;8.20;7.90;;;11.10;36.90;;;;;;4910614;29;20536;-77
2023/12/13 04:03:26;;;;;;;8.80;8.40;;;11.20;36.70;;;;;;4907466;29;20561;-75
2023/12/13 04:05:51;;;;;;;8.47;8.07;;;11.20;36.30;;;;;;4912003;29;20216;-76
2023/12/13 04:08:17;;;;;;;8.47;8.07;;;11.10;35.90;;;;;;4901297;29;20189;-78
2023/12/13 04:10:43;;;;;;;8.63;8.30;;;11.00;36.50;;;;;;4891936;29;20177;-76
2023/12/13 04:13:09;;;;;;;8.33;8.03;;;10.80;36.50;;;;;;4916033;29;20465;-76
2023/12/13 04:15:34;;;;;;;9.23;8.73;;;10.60;37.40;;;;;;4893699;29;20268;-77
2023/12/13 04:18:00;;;;;;;9.30;8.83;;;10.60;37.90;;;;;;4909537;29;20193;-77
2023/12/13 04:20:25;;;;;;;8.97;8.67;;;10.50;37.50;;;;;;4909306;29;20213;-76
2023/12/13 04:22:51;;;;;;;8.13;7.80;;;10.40;38.30;;;;;;4909654;29;20232;-77
2023/12/13 04:25:16;;;;;;;8.80;8.40;;;10.50;38.50;;;;;;4904061;29;20208;-77
2023/12/13 04:27:43;;;;;;;8.57;8.07;;;10.70;38.20;;;;;;4909581;29;20299;-77
2023/12/13 04:30:11;;;;;;;8.30;7.70;;;10.90;37.60;;;;;;4909315;29;20178;-76
2023/12/13 04:32:37;;;;;;;7.70;7.40;;;11.10;36.70;;;;;;4906169;29;20469;-77
2023/12/13 04:35:02;;;;;;;8.20;7.80;;;11.30;36.20;;;;;;4906783;29;21033;-78
2023/12/13 04:37:28;;;;;;;7.73;7.43;;;11.30;35.70;;;;;;4909806;29;20425;-78
2023/12/13 04:39:56;;;;;;;8.47;8.07;;;11.40;35.30;;;;;;4909942;29;20200;-78
2023/12/13 04:42:22;;;;;;;8.63;8.23;;;11.50;34.80;;;;;;4906491;29;20220;-78
2023/12/13 04:44:47;;;;;;;8.57;7.93;;;11.50;34.40;;;;;;4901852;29;20520;-78
2023/12/13 04:47:13;;;;;;;7.80;7.50;;;11.50;33.40;;;;;;4906996;29;20779;-77
2023/12/13 04:49:38;;;;;;;7.87;7.60;;;11.30;34.00;;;;;;4899862;29;20200;-77
2023/12/13 04:52:04;;;;;;;7.77;7.33;;;11.10;34.90;;;;;;4908599;29;20662;-77
2023/12/13 04:54:30;;;;;;;7.80;7.40;;;11.10;35.60;;;;;;4910332;29;20687;-76
2023/12/13 04:56:55;;;;;;;7.70;7.40;;;11.20;35.30;;;;;;4909314;29;20613;-77
2023/12/13 04:59:21;;;;;;;7.47;7.17;;;11.20;35.00;;;;;;4910928;29;20228;-76
2023/12/13 05:01:46;;;;;;;8.03;7.70;;;11.30;34.50;;;;;;4906820;29;20195;-77
2023/12/13 05:04:12;;;;;;;7.70;7.40;;;11.40;34.50;;;;;;4909699;29;20297;-76
2023/12/13 05:06:37;;;;;;;7.83;7.40;;;11.40;34.00;;;;;;4894461;29;20264;-77
2023/12/13 05:09:03;;;;;;;8.60;8.30;;;11.40;34.10;;;;;;4910947;29;20228;-76
2023/12/13 05:11:28;;;;;;;8.53;8.10;;;11.30;32.60;;;;;;4899347;29;20256;-77
2023/12/13 05:13:54;;;;;;;8.33;8.03;;;11.30;33.60;;;;;;4909243;29;20198;-77
2023/12/13 05:16:20;;;;;;;7.40;7.20;;;11.30;34.00;;;;;;4909316;29;20230;-77
2023/12/13 05:18:45;;;;;;;8.10;7.80;;;11.20;32.70;;;;;;4909367;29;20944;-76
2023/12/13 05:21:11;;;;;;;8.30;8.00;;;11.20;32.60;;;;;;4908419;29;20661;-76
2023/12/13 05:23:36;;;;;;;7.77;7.33;;;10.90;33.00;;;;;;4904394;29;20707;-76
2023/12/13 05:26:02;;;;;;;7.50;7.10;;;10.90;34.00;;;;;;4905063;29;20213;-77
2023/12/13 05:28:28;;;;;;;7.20;7.00;;;10.80;33.50;;;;;;4905918;29;20213;-77
2023/12/13 05:30:54;;;;;;;7.40;7.10;;;10.80;34.50;;;;;;4905393;29;20606;-78
2023/12/13 05:33:19;;;;;;;9.20;8.43;;;10.50;34.50;;;;;;4906345;29;20425;-77
2023/12/13 05:35:45;;;;;;;8.33;8.03;;;10.50;35.80;;;;;;4907411;29;20677;-78
2023/12/13 05:38:10;;;;;;;9.10;8.80;;;10.50;36.60;;;;;;4897192;29;20268;-77
2023/12/13 05:40:36;;;;;;;9.03;8.57;;;10.60;35.70;;;;;;4899421;29;20284;-78
2023/12/13 05:43:01;;;;;;;8.23;7.93;;;10.40;36.20;;;;;;4898496;29;20186;-78
2023/12/13 05:45:27;;;;;;;8.30;8.10;;;10.40;36.10;;;;;;4903711;29;20209;-77
2023/12/13 05:47:53;;;;;;;8.73;8.43;;;10.30;36.30;;;;;;4908625;29;20773;-78
2023/12/13 05:50:18;;;;;;;8.67;8.20;;;10.30;37.00;;;;;;4907653;29;20224;-78
2023/12/13 05:52:44;;;;;;;7.50;7.30;;;10.20;36.90;;;;;;4904021;29;20189;-78
2023/12/13 05:55:11;;;;;;;8.40;8.10;;;10.20;38.30;;;;;;4907664;29;20313;-78
2023/12/13 05:57:37;;;;;;;8.70;8.40;;;10.30;38.70;;;;;;4895975;29;20184;-77
2023/12/13 06:00:06;;;;;;;7.13;6.93;;;10.30;37.00;;;;;;4910389;29;20437;-79
2023/12/13 06:02:35;;;;;;;6.70;6.50;;;10.30;37.40;;;;;;4904331;29;20441;-78
2023/12/13 06:05:02;;;;;;;7.10;6.90;;;10.30;37.10;;;;;;4902002;29;20464;-78
2023/12/13 06:07:28;;;;;;;7.30;7.10;;;10.30;37.30;;;;;;4903803;29;20472;-78
2023/12/13 06:09:54;;;;;;;8.13;7.93;;;10.20;37.30;;;;;;4909600;29;20424;-78
2023/12/13 06:12:22;;;;;;;8.30;8.00;;;10.10;38.30;;;;;;4894441;29;20533;-78
2023/12/13 06:14:47;;;;;;;7.30;7.10;;;10.00;38.80;;;;;;4907895;29;20200;-78
2023/12/13 07:06:28;;;;;;;7.00;6.70;;;9.60;43.60;;;;;;5560364;23;20641;-78
2023/12/13 07:08:56;;;;;;;7.10;6.80;;;9.60;43.80;;;;;;4910395;29;20945;-78
2023/12/13 07:11:24;;;;;;;7.00;6.80;;;9.70;43.60;;;;;;4925463;29;20435;-78
2023/12/13 07:13:50;;;;;;;8.47;7.87;;;9.70;43.20;;;;;;4926750;29;20447;-78
2023/12/13 07:16:16;;;;;;;8.37;7.67;;;9.70;43.90;;;;;;4908879;29;20471;-78
2023/12/13 07:18:41;;;;;;;8.00;7.60;;;9.80;43.70;;;;;;4924058;29;20245;-79
2023/12/13 07:21:07;;;;;;;7.30;6.90;;;9.90;43.10;;;;;;4924764;29;20563;-78
2023/12/13 07:23:35;;;;;;;7.30;7.10;;;9.90;42.50;;;;;;4931033;29;20266;-78
2023/12/13 07:26:04;;;;;;;7.43;7.13;;;9.90;42.50;;;;;;4925356;29;20477;-78
2023/12/13 07:28:30;;;;;;;7.90;7.50;;;9.90;42.50;;;;;;4930892;29;20451;-78
2023/12/13 07:30:56;;;;;;;7.30;7.00;;;9.80;42.40;;;;;;4925519;29;20429;-78
2023/12/13 07:33:21;;;;;;;7.23;6.93;;;9.80;42.80;;;;;;4914174;29;20876;-78
2023/12/13 07:35:47;;;;;;;6.73;6.53;;;9.70;43.20;;;;;;4912570;29;20242;-78
2023/12/13 07:38:14;;;;;;;7.87;7.47;;;9.70;43.40;;;;;;4928217;29;20180;-77
2023/12/13 07:40:40;;;;;;;7.30;7.00;;;9.70;43.10;;;;;;4925110;29;20260;-78
2023/12/13 07:43:06;;;;;;;7.60;7.30;;;9.70;43.20;;;;;;4930713;29;20424;-78
2023/12/13 07:45:32;;;;;;;7.93;7.43;;;9.70;43.90;;;;;;4926738;29;20451;-78
2023/12/13 07:47:57;;;;;;;8.00;7.70;;;9.80;43.10;;;;;;4920114;29;20208;-78
2023/12/13 07:50:23;;;;;;;6.83;6.63;;;9.90;42.50;;;;;;4919366;29;20239;-78
2023/12/13 07:52:48;;;;;;;8.93;8.53;;;9.90;42.50;;;;;;4919648;29;20192;-78
2023/12/13 07:55:18;;;;;;;8.23;7.63;;;10.00;41.60;;;;;;4906331;29;20194;-77
2023/12/13 07:57:46;;;;;;;8.13;7.73;;;9.90;42.50;;;;;;4908277;29;20197;-78
2023/12/13 08:00:12;;;;;;;7.43;7.13;;;9.90;42.50;;;;;;4907437;29;20440;-77
2023/12/13 08:02:38;;;;;;;7.90;7.60;;;9.90;42.50;;;;;;4925208;29;20607;-77
2023/12/13 08:05:04;;;;;;;8.13;7.83;;;9.90;42.50;;;;;;4917966;29;20442;-77
2023/12/13 08:07:30;;;;;;;8.33;7.93;;;9.90;42.80;;;;;;4916860;29;20224;-78
2023/12/13 08:09:59;;;;;;;7.60;7.30;;;9.90;43.50;;;;;;4918047;29;20185;-78
2023/12/13 08:12:27;;;;;;;7.70;7.40;;;9.80;43.80;;;;;;4926212;29;20422;-78
2023/12/13 08:14:53;;;;;;;7.40;7.10;;;9.80;43.80;;;;;;4923359;29;20443;-78
2023/12/13 08:17:18;;;;;;;7.83;7.53;;;9.80;44.10;;;;;;4921349;29;20960;-76
2023/12/13 08:19:44;;;;;;;7.53;7.13;;;9.80;44.30;;;;;;4915914;29;20660;-76
2023/12/13 08:22:10;;;;;;;7.23;6.83;;;9.70;44.60;;;;;;4919832;29;20239;-76
2023/12/13 08:24:35;;;;;;;7.20;6.50;;;9.70;45.30;;;;;;4916414;29;20717;-76
2023/12/13 08:27:01;;;;;;;6.93;6.60;;;9.70;45.40;;;;;;4924006;29;20344;-76
2023/12/13 08:29:26;;;;;;;7.33;7.00;;;9.70;45.70;;;;;;4924185;29;20191;-76
2023/12/13 08:31:52;;;;;;;6.87;6.67;;;9.70;46.00;;;;;;4923134;29;20586;-76
2023/12/13 08:34:18;;;;;;;6.97;6.67;;;9.80;45.90;;;;;;4907155;29;20187;-76
2023/12/13 08:36:44;;;;;;;7.40;7.10;;;9.80;45.70;;;;;;4915111;29;20282;-76
2023/12/13 08:39:09;;;;;;;7.40;7.10;;;9.90;45.80;;;;;;4916847;29;20209;-77
2023/12/13 08:41:35;;;;;;;7.17;6.87;;;9.90;45.60;;;;;;4904046;29;20819;-77
2023/12/13 08:44:00;;;;;;;8.17;7.73;;;9.90;44.80;;;;;;4917875;29;20199;-75
2023/12/13 08:46:26;;;;;;;8.27;7.77;;;10.00;44.00;;;;;;4922660;29;20236;-76
2023/12/13 08:48:51;;;;;;;7.80;7.50;;;10.00;44.40;;;;;;4920090;29;20259;-78
2023/12/13 08:51:17;;;;;;;7.23;6.93;;;9.90;44.80;;;;;;4927293;29;20212;-78
2023/12/13 08:53:42;;;;;;;9.70;9.30;;;9.90;45.30;;;;;;4921420;29;20985;-77
2023/12/13 08:56:09;;;;;;;7.67;7.27;;;10.00;44.50;;;;;;4925139;29;20298;-78
2023/12/13 08:58:35;;;;;;;7.90;7.43;;;10.10;43.40;;;;;;4920312;29;20289;-77
2023/12/13 09:01:01;;;;;;;8.93;8.17;;;10.10;43.00;;;;;;4925188;29;20432;-78
2023/12/13 09:03:27;;;;;;;8.03;7.73;;;10.10;42.80;;;;;;4917117;29;20956;-77
2023/12/13 09:05:53;;;;;;;7.60;7.30;;;10.00;43.10;;;;;;4911267;29;20212;-76
2023/12/13 09:08:19;;;;;;;8.30;8.00;;;10.10;43.60;;;;;;4925174;29;20433;-77
2023/12/13 09:10:44;;;;;;;7.80;7.40;;;10.20;43.20;;;;;;4920526;29;20919;-78
2023/12/13 09:13:10;;;;;;;7.40;7.10;;;10.20;42.50;;;;;;4915231;29;20324;-78
2023/12/13 09:15:35;;;;;;;7.77;7.47;;;10.20;43.30;;;;;;4920172;29;20695;-78
2023/12/13 09:18:01;;;;;;;7.97;7.67;;;10.30;42.50;;;;;;4920781;29;20199;-76
2023/12/13 09:20:26;;;;;;;8.07;7.73;;;10.30;42.80;;;;;;4918173;29;20280;-76
2023/12/13 09:22:52;;;;;;;7.90;7.50;;;10.40;42.00;;;;;;4898116;29;20189;-77
2023/12/13 09:25:18;;;;;;;9.07;7.63;;;10.30;41.90;;;;;;4920353;29;20188;-77
2023/12/13 09:27:44;;;;;;;8.53;8.23;;;10.30;41.90;;;;;;4917698;29;20248;-77
2023/12/13 09:30:11;;;;;;;8.00;7.60;;;10.30;42.30;;;;;;4904657;29;20275;-77
2023/12/13 09:32:40;;;;;;;8.83;8.53;;;10.30;42.60;;;;;;4926221;29;20452;-77
2023/12/13 09:35:06;;;;;;;8.57;8.17;;;10.30;42.80;;;;;;4899231;29;20933;-76
2023/12/13 09:37:32;;;;;;;8.60;8.30;;;10.30;42.80;;;;;;4922666;29;20462;-76
2023/12/13 09:40:01;;;;;;;8.80;8.30;;;10.10;42.90;;;;;;4916169;29;20193;-77
2023/12/13 09:42:28;;;;;;;8.43;8.10;;;10.20;43.50;;;;;;4917528;29;20801;-77
2023/12/13 09:44:55;;;;;;;9.57;9.07;;;10.20;43.10;;;;;;4914850;29;20429;-77
2023/12/13 09:47:23;;;;;;;8.70;8.20;;;10.20;43.60;;;;;;4915117;29;20528;-77
2023/12/13 09:49:50;;;;;;;7.93;7.53;;;10.20;43.80;;;;;;4898136;29;20437;-76
2023/12/13 09:52:20;;;;;;;8.90;8.10;;;10.20;43.10;;;;;;4915964;29;20428;-76
2023/12/13 09:54:46;;;;;;;8.10;7.60;;;10.20;43.40;;;;;;4918917;29;20523;-76
2023/12/13 09:57:11;;;;;;;7.50;7.10;;;10.10;43.50;;;;;;4910550;29;20544;-77
2023/12/13 09:59:38;;;;;;;7.90;7.60;;;10.20;43.70;;;;;;4912562;29;20560;-76
2023/12/13 10:02:12;;;;;;;8.07;7.67;;;10.30;43.00;;;;;;4915823;29;20628;-76
2023/12/13 10:04:38;;;;;;;9.20;8.70;;;10.40;42.90;;;;;;4915181;29;20523;-77
2023/12/13 10:07:07;;;;;;;8.63;8.23;;;10.40;42.90;;;;;;4915516;29;20555;-77
2023/12/13 10:09:33;;;;;;;8.77;8.27;;;10.50;42.80;;;;;;4915879;29;20838;-76
2023/12/13 10:11:58;;;;;;;8.53;8.03;;;10.60;42.10;;;;;;4914884;29;20429;-77
2023/12/13 10:14:24;;;;;;;8.60;8.20;;;10.60;41.40;;;;;;4914370;29;20571;-79
2023/12/13 10:16:50;;;;;;;8.87;8.37;;;10.60;41.70;;;;;;4900863;29;20571;-78
2023/12/13 10:19:18;;;;;;;8.33;7.83;;;10.70;41.50;;;;;;4916667;29;20514;-76
2023/12/13 10:21:48;;;;;;;8.20;7.90;;;10.70;40.40;;;;;;4924302;29;20607;-76
2023/12/13 10:24:15;;;;;;;9.43;8.73;;;10.70;41.10;;;;;;4916678;29;20437;-77
2023/12/13 10:50:47;;;;;;;8.63;8.30;;;10.90;41.10;;;;;;5576036;23;20492;-77
2023/12/13 10:53:23;;;;;;;9.30;8.80;;;10.80;41.10;;;;;;4921810;29;20555;-77
2023/12/13 10:55:49;;;;;;;8.50;7.90;;;11.00;41.70;;;;;;4933350;29;20455;-78
2023/12/13 10:58:16;;;;;;;9.77;9.27;;;11.20;41.50;;;;;;4914518;29;20516;-77
2023/12/13 11:00:42;;;;;;;9.20;8.40;;;11.20;39.70;;;;;;4920113;29;20195;-77
2023/12/13 11:03:15;;;;;;;8.10;7.73;;;11.20;39.90;;;;;;4919700;29;20440;-77
2023/12/13 11:05:41;;;;;;;8.73;8.30;;;11.30;40.20;;;;;;4929598;29;20540;-78
2023/12/13 11:08:14;;;;;;;8.90;8.50;;;11.20;38.90;;;;;;4925442;29;20973;-78
2023/12/13 11:10:40;;;;;;;9.77;9.00;;;11.20;39.50;;;;;;4904622;29;20803;-77
2023/12/13 11:13:06;;;;;;;9.23;8.90;;;11.20;40.20;;;;;;4926928;29;20460;-78
2023/12/13 11:37:38;;;;;;;8.67;8.37;;;12.00;36.20;;;;;;5267626;23;20532;-77
2023/12/13 11:43:21;;;;;;;8.17;7.77;;;11.80;34.30;;;;;;4914940;29;20456;-79
2023/12/13 11:46:18;;;;;;;8.07;7.77;;;11.80;33.10;;;;;;4905605;29;20460;-79
2023/12/13 11:52:48;;;;;;;;;;;;;;;;;;;;;
2023/12/13 11:56:42;;;;;;;8.63;8.33;;;11.30;33.60;;;;;;4914055;29;20516;-78
2023/12/13 11:59:29;;;;;;;8.20;7.90;;;11.20;34.20;;;;;;4904780;29;20428;-79
2023/12/13 12:02:58;;;;;;;;;;;;;;;;;;;;;
2023/12/13 12:05:55;;;;;;;8.23;7.93;;;11.60;33.90;;;;;;4915286;29;20463;-78
2023/12/13 12:09:03;;;;;;;9.17;8.67;;;11.50;32.80;;;;;;4878164;29;20832;-78
2023/12/13 12:11:57;;;;;;;8.77;8.40;;;11.60;32.90;;;;;;4914447;29;20417;-78
2023/12/13 12:15:02;;;;;;;8.77;8.33;;;11.60;32.90;;;;;;4913973;29;20775;-78
2023/12/13 12:24:53;;;;;;;9.43;9.00;;;11.60;32.90;;;;;;4868451;29;20471;-77
2023/12/13 17:13:56;;;;;;;;;;;;;;;;;;;;;
2023/12/13 17:17:10;;;;;;;;;;;;;;;;;;;;;
2023/12/13 18:00:50;;;;;;;;;;;;;;;;;;;;;
2023/12/13 18:03:49;;;;;;;9.20;8.80;;;10.50;38.20;;;;;;4918373;29;20422;-79
2023/12/13 18:06:48;;;;;;;;;;;;;;;;;;;;;
2023/12/13 18:10:04;;;;;;;;;;;;;;;;;;;;;
2023/12/13 18:17:07;;;;;;;;;;;;;;;;;;;;;
2023/12/13 18:20:30;;;;;;;;;;;;;;;;;;;;;
2023/12/13 18:40:49;;;;;;;;;;;;;;;;;;;;;
2023/12/13 18:50:57;;;;;;;11.97;11.10;;;9.90;42.50;;;;;;4812761;29;20476;-78
2023/12/13 18:54:03;;;;;;;11.73;10.90;;;9.90;42.40;;;;;;4826033;29;21219;-79
2023/12/13 18:56:40;;;;;;;12.37;11.50;;;9.90;42.50;;;;;;4834990;29;20588;-79
2023/12/13 18:59:49;;;;;;;11.90;11.30;;;9.90;43.10;;;;;;4891121;29;20500;-79
2023/12/13 19:03:32;;;;;;;;;;;;;;;;;;;;;
2023/12/13 19:06:47;;;;;;;;;;;;;;;;;;;;;
2023/12/13 19:09:16;;;;;;;;;;;;;;;;;;;;;
2023/12/13 19:12:14;;;;;;;10.93;10.33;;;10.30;40.00;;;;;;4902946;29;21001;-79
2023/12/13 19:14:48;;;;;;;11.70;10.97;;;10.20;39.50;;;;;;4898238;29;20425;-78
2023/12/13 19:17:34;;;;;;;10.90;10.30;;;10.20;40.40;;;;;;4899903;29;20551;-78
2023/12/13 19:20:55;;;;;;;10.67;10.17;;;10.30;39.60;;;;;;4901160;29;20796;-78
2023/12/13 19:24:03;;;;;;;;;;;;;;;;;;;;;
2023/12/13 19:29:57;;;;;;;12.80;12.20;;;9.80;42.40;;;;;;4898754;29;20434;-79
2023/12/13 19:32:32;;;;;;;13.03;12.23;;;9.70;41.40;;;;;;4899865;29;20421;-78
2023/12/13 19:38:47;;;;;;;13.43;12.73;;;9.70;42.30;;;;;;4866745;29;20435;-78
2023/12/13 19:41:39;;;;;;;13.90;13.00;;;9.60;42.90;;;;;;4869484;29;20956;-78
2023/12/13 19:44:22;;;;;;;13.30;12.50;;;9.60;43.70;;;;;;4886776;29;20436;-78
2023/12/13 19:47:14;;;;;;;13.03;12.23;;;9.70;43.20;;;;;;4898808;29;20469;-77
2023/12/13 19:50:12;;;;;;;12.20;11.60;;;9.50;42.30;;;;;;4893702;29;20434;-77
2023/12/13 19:53:13;;;;;;;12.70;12.10;;;9.50;43.00;;;;;;4882945;29;20458;-77
2023/12/13 19:55:57;;;;;;;11.43;10.83;;;9.50;43.20;;;;;;4872898;29;20439;-77
2023/12/13 20:05:54;;;;;;;11.87;11.07;;;9.60;43.70;;;;;;4899708;29;20962;-76
2023/12/13 20:08:25;;;;;;;12.20;11.60;;;9.90;42.50;;;;;;4877006;29;20477;-77
2023/12/13 20:11:23;;;;;;;10.97;10.43;;;10.10;41.10;;;;;;4897461;29;20513;-77
2023/12/13 20:14:44;;;;;;;11.13;10.47;;;10.30;39.00;;;;;;4860650;29;20803;-77
2023/12/13 20:27:55;;;;;;;11.03;10.50;;;10.80;36.30;;;;;;5048929;23;20503;-77
2023/12/13 20:34:07;;;;;;;11.30;10.80;;;10.90;35.00;;;;;;4918838;29;20908;-78
2023/12/13 20:36:46;;;;;;;10.47;9.97;;;11.00;34.50;;;;;;4890865;29;20452;-77
2023/12/13 20:43:02;;;;;;;10.07;9.47;;;10.80;33.20;;;;;;4911607;29;20478;-77
2023/12/13 21:03:38;;;;;;;8.73;8.33;;;9.30;39.10;;;;;;4890530;29;20499;-77
2023/12/13 21:09:34;;;;;;;9.33;9.03;;;9.00;39.70;;;;;;4921200;28;20553;-77
2023/12/13 21:15:41;;;;;;;;;;;;;;;;;;;;;
2023/12/13 21:18:31;;;;;;;8.20;7.90;;;8.90;39.60;;;;;;4898516;29;20421;-78
2023/12/13 21:21:11;;;;;;;7.93;7.60;;;8.70;41.30;;;;;;4898886;29;20424;-77
2023/12/13 21:23:46;;;;;;;7.80;7.50;;;8.70;41.80;;;;;;4887665;29;20430;-77
2023/12/13 21:26:48;;;;;;;7.67;7.47;;;8.80;41.60;;;;;;4919754;23;20865;-77
2023/12/13 21:29:14;;;;;;;7.93;7.63;;;8.70;41.50;;;;;;4910407;29;21111;-77
2023/12/13 21:31:42;;;;;;;8.20;7.90;;;8.60;42.30;;;;;;4907932;29;20471;-77
2023/12/13 21:34:08;;;;;;;7.27;6.90;;;8.40;43.30;;;;;;4914876;29;20232;-77
2023/12/13 21:36:41;;;;;;;7.70;7.40;;;8.30;43.80;;;;;;4914681;29;21152;-77
2023/12/13 21:39:07;;;;;;;6.30;6.10;;;8.30;44.20;;;;;;4901283;29;20185;-78
2023/12/13 21:41:32;;;;;;;7.37;7.17;;;8.30;44.50;;;;;;4923094;29;20443;-77
2023/12/13 21:43:58;;;;;;;7.03;6.70;;;8.40;44.10;;;;;;4916195;29;20188;-77
2023/12/13 21:46:24;;;;;;;7.10;6.80;;;8.60;43.90;;;;;;4915485;29;20240;-77
2023/12/13 21:48:50;;;;;;;6.90;6.70;;;8.60;42.40;;;;;;4915594;29;20181;-78
2023/12/13 21:51:18;;;;;;;9.30;8.90;;;8.80;41.60;;;;;;4915586;29;20425;-77
2023/12/13 21:53:45;;;;;;;7.00;6.73;;;8.90;41.70;;;;;;4901571;29;20433;-78
2023/12/13 21:56:17;;;;;;;8.13;7.83;;;9.10;41.10;;;;;;4937950;23;20784;-77
2023/12/13 21:59:18;;;;;;;7.33;7.03;;;9.20;40.60;;;;;;4910474;29;20438;-77
2023/12/13 22:03:22;;;;;;;;;;;;;;;;;;;;;
2023/12/13 22:17:28;;;;;;;;;;;;;;;;;;;;;
2023/12/13 22:20:54;;;;;;;;;;;;;;;;;;;;;
2023/12/13 22:24:10;;;;;;;8.20;8.00;;;9.90;36.30;;;;;;4745398;30;20438;-78
2023/12/13 22:26:43;;;;;;;7.53;7.23;;;9.90;35.40;;;;;;4743149;30;20490;-76
2023/12/13 22:29:34;;;;;;;7.13;6.90;;;9.80;35.90;;;;;;4728082;30;20964;-76